createdAt,value
2019-02-02T00:00:01.674Z,9.63
2019-02-02T00:02:28.325Z,7.60
2019-02-02T00:04:54.597Z,8.23
2019-02-02T00:07:21.253Z,7.93
2019-02-02T00:09:47.881Z,8.53
2019-02-02T00:12:14.509Z,6.90
2019-02-02T00:14:41.133Z,7.40
2019-02-02T00:17:07.450Z,7.30
2019-02-02T00:19:34.077Z,8.13
2019-02-02T00:22:00.698Z,10.50
2019-02-02T00:24:26.949Z,8.97
2019-02-02T00:26:53.565Z,11.40
2019-02-02T00:29:20.198Z,8.33
2019-02-02T00:31:46.838Z,10.53
2019-02-02T00:34:13.119Z,9.57
2019-02-02T00:36:39.479Z,7.73
2019-02-02T00:39:07.332Z,8.70
2019-02-02T00:41:33.587Z,7.80
2019-02-02T00:44:00.242Z,11.60
2019-02-02T00:46:27.972Z,10.00
2019-02-02T00:48:54.263Z,10.57
2019-02-02T00:51:21.759Z,8.40
2019-02-02T00:53:48.086Z,8.93
2019-02-02T00:56:14.361Z,9.90
2019-02-02T00:58:41.061Z,11.17
2019-02-02T01:01:07.790Z,11.53
2019-02-02T01:03:34.494Z,13.13
2019-02-02T01:06:00.934Z,12.07
2019-02-02T01:08:27.216Z,8.63
2019-02-02T01:10:53.942Z,7.03
2019-02-02T01:13:20.204Z,8.23
2019-02-02T01:15:46.863Z,9.20
2019-02-02T01:18:13.488Z,7.40
2019-02-02T01:20:40.226Z,7.07
2019-02-02T01:23:06.581Z,8.80
2019-02-02T01:25:33.205Z,7.13
2019-02-02T01:28:05.440Z,8.77
2019-02-02T01:30:28.067Z,7.57
2019-02-02T01:32:54.768Z,7.83
2019-02-02T01:35:21.033Z,7.47
2019-02-02T01:37:47.803Z,8.63
2019-02-02T01:40:15.712Z,7.37
2019-02-02T01:42:42.466Z,10.23
2019-02-02T01:45:13.432Z,10.00
2019-02-02T01:47:39.794Z,9.50
2019-02-02T01:50:08.301Z,9.83
2019-02-02T01:52:34.910Z,7.83
2019-02-02T01:55:01.204Z,9.70
2019-02-02T01:57:27.461Z,8.23
2019-02-02T01:59:54.111Z,8.93
2019-02-02T02:02:20.726Z,10.50
2019-02-02T02:04:47.406Z,10.20
2019-02-02T02:07:14.197Z,9.77
2019-02-02T02:09:40.501Z,11.13
2019-02-02T02:12:07.218Z,10.17
2019-02-02T02:14:33.533Z,9.37
2019-02-02T02:16:59.794Z,9.83
2019-02-02T02:19:26.059Z,10.50
2019-02-02T02:21:52.684Z,11.47
2019-02-02T02:24:18.974Z,10.90
2019-02-02T02:26:45.254Z,10.87
2019-02-02T02:29:11.536Z,12.20
2019-02-02T02:31:37.832Z,10.43
2019-02-02T02:34:04.532Z,11.43
2019-02-02T02:36:31.235Z,11.27
2019-02-02T02:38:57.848Z,11.37
2019-02-02T02:41:24.430Z,12.33
2019-02-02T02:43:51.294Z,10.30
2019-02-02T02:46:17.920Z,12.20
2019-02-02T02:48:44.220Z,11.13
2019-02-02T02:51:10.858Z,11.70
2019-02-02T02:53:37.148Z,11.83
2019-02-02T02:56:03.876Z,10.83
2019-02-02T02:58:41.110Z,12.97
2019-02-02T03:00:58.598Z,11.20
2019-02-02T03:03:25.027Z,11.00
2019-02-02T03:05:51.281Z,11.10
2019-02-02T03:08:17.909Z,10.20
2019-02-02T03:10:44.164Z,10.13
2019-02-02T03:13:10.418Z,12.37
2019-02-02T03:15:36.732Z,9.53
2019-02-02T03:18:03.206Z,12.43
2019-02-02T03:20:29.849Z,8.53
2019-02-02T03:22:56.453Z,8.90
2019-02-02T03:25:23.789Z,8.57
2019-02-02T03:27:50.513Z,8.13
2019-02-02T03:30:17.950Z,8.53
2019-02-02T03:32:44.441Z,9.50
2019-02-02T03:35:12.557Z,10.20
2019-02-02T03:37:39.119Z,10.20
2019-02-02T03:40:09.215Z,8.87
2019-02-02T03:42:35.475Z,9.27
2019-02-02T03:45:01.839Z,8.67
2019-02-02T03:47:28.475Z,11.03
2019-02-02T03:49:54.942Z,10.03
2019-02-02T03:52:21.439Z,10.03
2019-02-02T03:54:48.595Z,8.63
2019-02-02T03:57:14.886Z,9.17
2019-02-02T03:59:41.173Z,10.30
2019-02-02T04:02:07.576Z,10.17
2019-02-02T04:04:33.958Z,9.13
2019-02-02T04:07:00.570Z,9.90
2019-02-02T04:09:27.187Z,8.47
2019-02-02T04:11:53.917Z,9.33
2019-02-02T04:14:20.975Z,8.47
2019-02-02T04:16:47.207Z,8.33
2019-02-02T04:19:14.338Z,8.73
2019-02-02T04:21:40.827Z,7.57
2019-02-02T04:24:07.114Z,8.63
2019-02-02T04:26:33.732Z,9.47
2019-02-02T04:29:02.025Z,8.53
2019-02-02T04:31:28.288Z,8.83
2019-02-02T04:33:55.202Z,9.80
2019-02-02T04:36:21.674Z,10.00
2019-02-02T04:38:47.952Z,7.90
2019-02-02T04:41:14.565Z,8.97
2019-02-02T04:43:41.221Z,8.60
2019-02-02T04:46:07.849Z,8.63
2019-02-02T04:48:35.206Z,8.63
2019-02-02T04:51:01.824Z,10.10
2019-02-02T04:53:28.117Z,9.40
2019-02-02T04:55:54.786Z,8.60
2019-02-02T04:58:21.062Z,8.80
2019-02-02T05:00:48.090Z,8.03
2019-02-02T05:03:14.384Z,8.27
2019-02-02T05:05:40.671Z,10.07
2019-02-02T05:08:07.814Z,9.90
2019-02-02T05:10:37.075Z,8.03
2019-02-02T05:13:03.946Z,8.00
2019-02-02T05:15:30.212Z,9.40
2019-02-02T05:17:57.893Z,10.20
2019-02-02T05:20:24.548Z,9.07
2019-02-02T05:22:52.049Z,9.27
2019-02-02T05:25:19.549Z,7.50
2019-02-02T05:27:45.817Z,8.27
2019-02-02T05:30:14.341Z,9.80
2019-02-02T05:32:40.611Z,7.13
2019-02-02T05:35:08.458Z,7.90
2019-02-02T05:37:34.726Z,8.93
2019-02-02T05:40:01.105Z,10.13
2019-02-02T05:42:27.408Z,8.37
2019-02-02T05:44:54.066Z,9.50
2019-02-02T05:47:20.677Z,10.17
2019-02-02T05:49:49.600Z,9.77
2019-02-02T05:52:15.783Z,9.27
2019-02-02T05:54:42.040Z,10.60
2019-02-02T05:57:08.954Z,8.77
2019-02-02T05:59:35.561Z,9.73
2019-02-02T06:02:02.415Z,11.00
2019-02-02T06:04:29.506Z,10.40
2019-02-02T06:06:58.010Z,10.60
2019-02-02T06:09:24.278Z,9.47
2019-02-02T06:11:50.946Z,9.37
2019-02-02T06:14:17.227Z,8.83
2019-02-02T06:16:44.001Z,9.63
2019-02-02T06:19:10.661Z,9.00
2019-02-02T06:21:37.325Z,9.50
2019-02-02T06:24:03.493Z,9.37
2019-02-02T06:26:29.808Z,11.40
2019-02-02T06:28:56.191Z,11.03
2019-02-02T06:31:22.809Z,10.77
2019-02-02T06:33:49.085Z,9.57
2019-02-02T06:36:15.742Z,11.73
2019-02-02T06:38:42.363Z,10.70
2019-02-02T06:41:08.643Z,9.80
2019-02-02T06:43:35.281Z,11.13
2019-02-02T06:46:02.016Z,9.30
2019-02-02T06:48:29.529Z,10.30
2019-02-02T06:50:57.713Z,9.97
2019-02-02T06:53:24.626Z,9.83
2019-02-02T06:55:53.877Z,11.07
2019-02-02T06:58:20.494Z,10.27
2019-02-02T07:00:48.101Z,11.77
2019-02-02T07:03:14.717Z,10.83
2019-02-02T07:05:40.992Z,12.40
2019-02-02T07:08:09.758Z,11.53
2019-02-02T07:10:37.721Z,9.80
2019-02-02T07:13:04.386Z,11.17
2019-02-02T07:15:30.767Z,10.40
2019-02-02T07:17:57.409Z,10.53
2019-02-02T07:20:23.875Z,10.33
2019-02-02T07:22:50.522Z,10.33
2019-02-02T07:25:17.134Z,11.77
2019-02-02T07:27:44.637Z,9.27
2019-02-02T07:30:12.637Z,8.67
2019-02-02T07:32:38.974Z,8.73
2019-02-02T07:35:06.833Z,9.97
2019-02-02T07:37:33.078Z,11.07
2019-02-02T07:39:59.716Z,19.17
2019-02-02T07:42:25.970Z,17.43
2019-02-02T07:44:52.890Z,15.03
2019-02-02T07:47:19.496Z,11.57
2019-02-02T07:49:46.105Z,11.47
2019-02-02T07:52:12.717Z,12.00
2019-02-02T07:54:39.347Z,10.47
2019-02-02T07:57:06.538Z,10.57
2019-02-02T07:59:32.802Z,9.23
2019-02-02T08:01:59.450Z,7.73
2019-02-02T08:04:25.721Z,7.90
2019-02-02T08:06:53.436Z,8.47
2019-02-02T08:09:21.736Z,7.83
2019-02-02T08:11:48.263Z,7.60
2019-02-02T08:14:14.893Z,7.67
2019-02-02T08:16:42.494Z,8.10
2019-02-02T08:19:09.119Z,6.87
2019-02-02T08:21:35.764Z,7.17
2019-02-02T08:24:02.501Z,7.77
2019-02-02T08:26:29.155Z,7.67
2019-02-02T08:28:55.413Z,9.87
2019-02-02T08:31:22.612Z,10.27
2019-02-02T08:33:49.182Z,8.37
2019-02-02T08:36:15.798Z,9.77
2019-02-02T08:38:43.855Z,9.03
2019-02-02T08:41:10.466Z,8.80
2019-02-02T08:43:37.566Z,7.87
2019-02-02T08:46:05.565Z,8.33
2019-02-02T08:48:32.216Z,9.83
2019-02-02T08:50:58.493Z,11.67
2019-02-02T08:53:25.364Z,8.73
2019-02-02T08:55:52.406Z,8.20
2019-02-02T08:58:19.444Z,10.13
2019-02-02T09:00:46.021Z,8.60
2019-02-02T09:03:12.334Z,8.67
2019-02-02T09:05:38.688Z,8.40
2019-02-02T09:08:05.249Z,8.10
2019-02-02T09:10:31.636Z,8.70
2019-02-02T09:12:58.244Z,7.30
2019-02-02T09:15:26.205Z,8.23
2019-02-02T09:17:52.821Z,8.87
2019-02-02T09:20:19.568Z,5.23
2019-02-02T09:22:46.301Z,5.50
2019-02-02T09:25:13.969Z,6.03
2019-02-02T09:27:40.710Z,6.67
2019-02-02T09:30:09.238Z,6.90
2019-02-02T09:32:35.982Z,7.97
2019-02-02T09:35:03.112Z,6.10
2019-02-02T09:37:31.150Z,4.40
2019-02-02T09:39:57.772Z,5.40
2019-02-02T09:42:24.420Z,7.40
2019-02-02T09:44:51.062Z,6.97
2019-02-02T09:47:20.252Z,7.87
2019-02-02T09:49:46.913Z,7.40
2019-02-02T09:52:14.549Z,8.33
2019-02-02T09:54:44.327Z,61.53
2019-02-02T09:57:11.206Z,41.33
2019-02-02T09:59:38.848Z,24.07
2019-02-02T10:02:07.234Z,16.70
2019-02-02T10:04:33.861Z,11.30
2019-02-02T10:07:01.396Z,9.70
2019-02-02T10:09:27.952Z,8.57
2019-02-02T10:11:54.274Z,7.90
2019-02-02T10:14:20.902Z,7.50
2019-02-02T10:16:47.528Z,7.00
2019-02-02T10:19:14.697Z,6.97
2019-02-02T10:21:41.462Z,7.70
2019-02-02T10:24:09.662Z,11.83
2019-02-02T10:26:35.928Z,9.57
2019-02-02T10:29:02.669Z,8.60
2019-02-02T10:31:39.191Z,6.90
2019-02-02T10:33:57.753Z,6.30
2019-02-02T10:36:24.362Z,5.83
2019-02-02T10:38:50.660Z,6.30
2019-02-02T10:41:17.310Z,5.90
2019-02-02T10:43:43.963Z,6.43
2019-02-02T10:46:10.977Z,5.60
2019-02-02T10:48:38.394Z,6.87
2019-02-02T10:51:05.101Z,5.43
2019-02-02T10:53:33.276Z,6.10
2019-02-02T10:55:59.906Z,4.67
2019-02-02T10:58:26.530Z,4.17
2019-02-02T11:00:53.266Z,4.73
2019-02-02T11:03:19.546Z,4.53
2019-02-02T11:05:46.312Z,3.53
2019-02-02T11:08:14.603Z,4.33
2019-02-02T11:10:42.183Z,6.90
2019-02-02T11:13:09.176Z,6.53
2019-02-02T11:15:35.906Z,7.30
2019-02-02T11:18:03.343Z,8.13
2019-02-02T11:20:34.461Z,7.80
2019-02-02T11:23:02.197Z,8.50
2019-02-02T11:25:29.024Z,7.83
2019-02-02T11:27:55.806Z,8.83
2019-02-02T11:30:22.757Z,8.47
2019-02-02T11:32:49.380Z,7.70
2019-02-02T11:35:16.699Z,8.13
2019-02-02T11:37:43.362Z,7.30
2019-02-02T11:40:24.126Z,8.07
2019-02-02T11:42:50.478Z,7.43
2019-02-02T11:45:16.950Z,7.30
2019-02-02T11:47:43.677Z,9.60
2019-02-02T11:50:12.128Z,9.63
2019-02-02T11:52:38.757Z,9.83
2019-02-02T11:55:07.079Z,9.00
2019-02-02T11:57:33.727Z,7.30
2019-02-02T11:59:59.989Z,7.50
2019-02-02T12:02:26.294Z,6.90
2019-02-02T12:04:52.951Z,6.93
2019-02-02T12:07:19.596Z,6.70
2019-02-02T12:09:46.305Z,6.33
2019-02-02T12:12:13.626Z,6.70
2019-02-02T12:14:40.284Z,6.70
2019-02-02T12:17:08.586Z,6.63
2019-02-02T12:19:35.213Z,6.80
2019-02-02T12:22:01.602Z,6.10
2019-02-02T12:24:28.666Z,5.63
2019-02-02T12:26:58.375Z,5.03
2019-02-02T12:29:25.022Z,5.30
2019-02-02T12:31:51.678Z,5.30
2019-02-02T12:34:19.855Z,5.77
2019-02-02T12:36:46.461Z,6.80
2019-02-02T12:39:14.213Z,6.60
2019-02-02T12:41:40.829Z,6.93
2019-02-02T12:44:07.457Z,6.73
2019-02-02T12:46:33.723Z,7.00
2019-02-02T12:49:00.337Z,6.57
2019-02-02T12:51:27.061Z,6.33
2019-02-02T12:53:55.759Z,6.97
2019-02-02T12:56:22.109Z,6.73
2019-02-02T12:58:50.174Z,7.03
2019-02-02T13:01:16.826Z,6.40
2019-02-02T13:03:45.405Z,6.57
2019-02-02T13:06:11.661Z,7.20
2019-02-02T13:08:39.501Z,7.80
2019-02-02T13:11:06.321Z,7.07
2019-02-02T13:13:32.617Z,8.27
2019-02-02T13:15:58.899Z,6.63
2019-02-02T13:18:25.554Z,7.07
2019-02-02T13:20:52.189Z,6.27
2019-02-02T13:23:18.485Z,5.73
2019-02-02T13:25:45.126Z,6.03
2019-02-02T13:28:11.766Z,6.60
2019-02-02T13:30:38.043Z,7.07
2019-02-02T13:33:04.799Z,6.77
2019-02-02T13:35:33.353Z,7.70
2019-02-02T13:37:59.996Z,22.90
2019-02-02T13:40:26.622Z,25.23
2019-02-02T13:42:53.270Z,17.67
2019-02-02T13:45:20.758Z,9.37
2019-02-02T13:47:47.401Z,7.97
2019-02-02T13:50:15.183Z,8.30
2019-02-02T13:52:41.921Z,7.87
2019-02-02T13:55:08.870Z,7.10
2019-02-02T13:57:35.565Z,8.47
2019-02-02T14:00:03.883Z,7.47
2019-02-02T14:02:30.511Z,7.23
2019-02-02T14:04:56.781Z,7.20
2019-02-02T14:07:23.075Z,7.40
2019-02-02T14:09:49.990Z,7.27
2019-02-02T14:12:17.493Z,12.97
2019-02-02T14:14:44.233Z,6.50
2019-02-02T14:17:10.877Z,6.50
2019-02-02T14:19:37.525Z,5.27
2019-02-02T14:22:05.766Z,5.93
2019-02-02T14:24:32.025Z,4.83
2019-02-02T14:27:00.257Z,6.90
2019-02-02T14:29:26.517Z,5.83
2019-02-02T14:31:53.069Z,5.43
2019-02-02T14:34:19.339Z,5.50
2019-02-02T14:36:47.953Z,5.67
2019-02-02T14:39:14.219Z,5.33
2019-02-02T14:41:40.985Z,5.97
2019-02-02T14:44:07.607Z,5.87
2019-02-02T14:46:34.261Z,6.53
2019-02-02T14:49:00.529Z,4.93
2019-02-02T14:51:27.194Z,5.77
2019-02-02T14:53:53.816Z,5.33
2019-02-02T14:56:20.410Z,5.63
2019-02-02T14:58:46.670Z,6.57
2019-02-02T15:01:14.875Z,6.17
2019-02-02T15:03:41.563Z,7.80
2019-02-02T15:06:09.721Z,6.93
2019-02-02T15:08:38.316Z,6.63
2019-02-02T15:11:04.606Z,7.10
2019-02-02T15:13:30.933Z,7.17
2019-02-02T15:15:57.596Z,6.27
2019-02-02T15:18:24.217Z,6.77
2019-02-02T15:20:50.888Z,6.07
2019-02-02T15:23:18.017Z,7.10
2019-02-02T15:25:46.825Z,8.47
2019-02-02T15:28:13.468Z,10.30
2019-02-02T15:30:40.711Z,9.67
2019-02-02T15:33:07.347Z,9.30
2019-02-02T15:35:35.222Z,9.23
2019-02-02T15:38:01.483Z,12.90
2019-02-02T15:40:31.279Z,11.47
2019-02-02T15:42:56.550Z,9.73
2019-02-02T15:45:25.351Z,9.70
2019-02-02T15:47:52.041Z,12.23
2019-02-02T15:50:20.599Z,12.28
2019-02-02T15:52:48.437Z,10.77
2019-02-02T15:55:16.057Z,9.67
2019-02-02T15:57:42.800Z,9.00
2019-02-02T16:00:12.594Z,9.63
2019-02-02T16:02:40.270Z,9.83
2019-02-02T16:05:11.173Z,8.07
2019-02-02T16:07:38.806Z,7.23
2019-02-02T16:10:10.401Z,6.87
2019-02-02T16:12:38.813Z,7.17
2019-02-02T16:15:06.096Z,10.17
2019-02-02T16:17:34.661Z,10.47
2019-02-02T16:20:00.984Z,9.65
2019-02-02T16:22:28.882Z,12.67
2019-02-02T16:24:56.249Z,11.17
2019-02-02T16:27:22.860Z,11.45
2019-02-02T16:29:51.141Z,12.78
2019-02-02T16:32:19.883Z,11.50
2019-02-02T16:34:45.997Z,9.77
2019-02-02T16:37:12.641Z,13.40
2019-02-02T16:39:39.756Z,13.90
2019-02-02T16:42:06.129Z,11.33
2019-02-02T16:44:35.238Z,10.63
2019-02-02T16:47:02.026Z,8.93
2019-02-02T16:49:28.689Z,9.20
2019-02-02T16:51:54.959Z,10.63
2019-02-02T16:54:21.219Z,9.07
2019-02-02T16:56:50.882Z,11.57
2019-02-02T16:59:16.606Z,13.40
2019-02-02T17:01:42.910Z,14.53
2019-02-02T17:04:16.020Z,10.53
2019-02-02T17:06:37.993Z,10.43
2019-02-02T17:09:07.894Z,12.33
2019-02-02T17:11:35.954Z,12.07
2019-02-02T17:14:03.290Z,13.98
2019-02-02T17:16:31.334Z,11.60
2019-02-02T17:18:58.986Z,10.70
2019-02-02T17:21:28.974Z,9.73
2019-02-02T17:23:53.993Z,9.70
2019-02-02T17:26:20.274Z,10.67
2019-02-02T17:28:47.562Z,11.47
2019-02-02T17:31:14.193Z,10.17
2019-02-02T17:33:43.539Z,9.50
2019-02-02T17:36:10.211Z,10.50
2019-02-02T17:38:38.661Z,12.70
2019-02-02T17:41:05.325Z,10.50
2019-02-02T17:43:32.563Z,10.43
2019-02-02T17:45:59.445Z,9.33
2019-02-02T17:48:26.137Z,10.13
2019-02-02T17:50:52.758Z,10.00
2019-02-02T17:53:19.516Z,10.07
2019-02-02T17:55:46.380Z,9.10
2019-02-02T17:58:13.462Z,12.00
2019-02-02T18:00:43.528Z,12.33
2019-02-02T18:03:10.184Z,12.20
2019-02-02T18:05:38.291Z,11.97
2019-02-02T18:08:05.034Z,11.53
2019-02-02T18:10:31.662Z,11.57
2019-02-02T18:12:58.006Z,11.43
2019-02-02T18:15:24.652Z,10.63
2019-02-02T18:17:51.317Z,12.90
2019-02-02T18:20:18.028Z,10.73
2019-02-02T18:22:44.289Z,10.77
2019-02-02T18:25:12.058Z,10.27
2019-02-02T18:27:38.713Z,14.17
2019-02-02T18:30:11.609Z,10.43
2019-02-02T18:35:27.729Z,10.63
2019-02-02T18:37:54.122Z,11.20
2019-02-02T18:40:21.545Z,11.90
2019-02-02T18:42:48.214Z,12.27
2019-02-02T18:45:20.165Z,12.27
2019-02-02T18:47:47.046Z,13.27
2019-02-02T18:50:14.730Z,13.27
2019-02-02T18:52:41.618Z,13.77
2019-02-02T18:55:10.158Z,13.40
2019-02-02T18:57:36.716Z,11.67
2019-02-02T19:00:06.840Z,12.40
2019-02-02T19:02:33.527Z,11.33
2019-02-02T19:05:03.709Z,11.00
2019-02-02T19:07:28.338Z,11.50
2019-02-02T19:09:55.011Z,12.37
2019-02-02T19:12:21.714Z,11.50
2019-02-02T19:14:48.299Z,11.50
2019-02-02T19:17:14.568Z,12.60
2019-02-02T19:19:40.864Z,12.50
2019-02-02T19:22:07.870Z,11.40
2019-02-02T19:24:35.341Z,10.73
2019-02-02T19:27:03.913Z,11.20
2019-02-02T19:29:30.574Z,14.60
2019-02-02T19:31:57.260Z,13.97
2019-02-02T19:34:23.917Z,13.27
2019-02-02T19:36:51.606Z,13.80
2019-02-02T19:39:19.213Z,13.00
2019-02-02T19:41:45.834Z,14.07
2019-02-02T19:44:12.811Z,13.73
2019-02-02T19:46:39.446Z,13.07
2019-02-02T19:49:06.073Z,12.03
2019-02-02T19:51:33.620Z,56.77
2019-02-02T19:54:00.239Z,33.50
2019-02-02T19:56:26.904Z,19.50
2019-02-02T19:58:53.162Z,15.97
2019-02-02T20:01:19.831Z,13.43
2019-02-02T20:03:46.095Z,14.03
2019-02-02T20:06:12.355Z,25.43
2019-02-02T20:08:40.537Z,27.17
2019-02-02T20:11:06.851Z,19.50
2019-02-02T20:21:59.771Z,14.43
2019-02-02T20:24:26.427Z,12.13
2019-02-02T20:26:53.044Z,11.10
2019-02-02T20:29:21.229Z,11.00
2019-02-02T20:31:47.878Z,12.03
2019-02-02T20:34:14.508Z,10.33
2019-02-02T20:36:41.129Z,12.10
2019-02-02T20:39:07.526Z,10.87
2019-02-02T20:41:34.155Z,10.40
2019-02-02T20:44:02.330Z,11.53
2019-02-02T20:46:30.077Z,9.60
2019-02-02T20:48:56.736Z,10.67
2019-02-02T20:51:23.457Z,10.07
2019-02-02T20:53:50.298Z,11.33
2019-02-02T20:56:16.929Z,11.37
2019-02-02T20:58:43.558Z,11.20
2019-02-02T21:01:10.205Z,12.00
2019-02-02T21:03:37.229Z,11.17
2019-02-02T21:06:03.899Z,11.10
2019-02-02T21:08:30.144Z,10.60
2019-02-02T21:10:56.810Z,9.93
2019-02-02T21:13:23.106Z,10.67
2019-02-02T21:15:50.106Z,10.10
2019-02-02T21:18:16.733Z,9.63
2019-02-02T21:20:43.410Z,10.27
2019-02-02T21:23:10.100Z,9.90
2019-02-02T21:25:36.953Z,10.07
2019-02-02T21:28:04.182Z,11.30
2019-02-02T21:30:34.291Z,11.23
2019-02-02T21:33:01.757Z,9.93
2019-02-02T21:35:28.220Z,10.23
2019-02-02T21:37:54.845Z,11.80
2019-02-02T21:40:22.825Z,11.50
2019-02-02T21:42:49.711Z,10.10
2019-02-02T21:45:16.294Z,10.33
2019-02-02T21:47:44.932Z,14.15
2019-02-02T21:50:13.161Z,12.43
2019-02-02T21:52:39.646Z,13.47
2019-02-02T21:55:08.069Z,11.63
2019-02-02T21:57:35.381Z,12.03
2019-02-02T22:00:03.814Z,11.87
2019-02-02T22:02:30.097Z,11.97
2019-02-02T22:04:58.702Z,12.10
2019-02-02T22:07:24.991Z,10.03
2019-02-02T22:09:51.238Z,11.80
2019-02-02T22:12:17.894Z,11.93
2019-02-02T22:14:44.569Z,11.23
2019-02-02T22:17:11.564Z,11.80
2019-02-02T22:19:38.231Z,9.83
2019-02-02T22:22:04.879Z,10.80
2019-02-02T22:24:31.218Z,11.77
2019-02-02T22:26:57.479Z,11.20
2019-02-02T22:29:24.572Z,12.20
2019-02-02T22:31:51.200Z,10.67
2019-02-02T22:34:17.478Z,11.77
2019-02-02T22:36:44.046Z,10.23
2019-02-02T22:39:10.913Z,12.60
2019-02-02T22:41:37.884Z,12.80
2019-02-02T22:44:04.175Z,11.60
2019-02-02T22:46:31.013Z,12.60
2019-02-02T22:48:57.347Z,10.87
2019-02-02T22:51:24.152Z,9.87
2019-02-02T22:53:50.780Z,12.00
2019-02-02T22:56:17.254Z,10.83
2019-02-02T22:58:43.867Z,12.17
2019-02-02T23:01:12.509Z,13.43
2019-02-02T23:03:44.002Z,11.67
2019-02-02T23:06:14.140Z,11.70
2019-02-02T23:08:59.158Z,12.60
2019-02-02T23:11:27.779Z,12.00
2019-02-02T23:14:25.079Z,12.20
2019-02-02T23:16:51.350Z,11.90
2019-02-02T23:19:17.974Z,13.13
2019-02-02T23:21:44.681Z,14.90
2019-02-02T23:24:10.950Z,13.57
2019-02-02T23:26:38.205Z,13.63
2019-02-02T23:29:05.129Z,13.33
2019-02-02T23:31:31.442Z,12.63
2019-02-02T23:33:57.709Z,13.83
2019-02-02T23:36:24.389Z,13.80
2019-02-02T23:38:51.209Z,13.90
2019-02-02T23:41:17.825Z,13.37
2019-02-02T23:43:44.507Z,12.83
2019-02-02T23:46:11.478Z,14.60
2019-02-02T23:48:38.154Z,14.57
2019-02-02T23:51:04.581Z,14.43
2019-02-02T23:53:30.947Z,14.37
2019-02-02T23:55:57.250Z,14.63
2019-02-02T23:58:23.970Z,15.63
